Raymore, Missouri
Current Conditions -  °F | °C
As of 2:53 PM on Friday 19 Dec 2014 (Local Time) from KLXT Reporting Station
Overcast Overcast  
Wind Chill:   Ceiling: 800
Heat Index:   Visibility: 10mi
Dew Point: -1°   Wind: 0mph
Humidity: 85%   Direction: NA
Pressure: 30.21"   Gusts: NA
Location:  38.8°N, 94.46°W
Report Text: KLXT 192053Z AUTO 00000KT 10SM OVC008 01/M01 A3021 RMK AO2 SLP240 T00111011 56021 TSNO
Loading
Personal Weather Stations






























Interactive Weather Map New forecast layout! Learn more

10-Day Weather Forecast

Advertisements
Track Severe Weather on mobile